Greater Cumberland Regional Airport

About
Name: Greater Cumberland Regional Airport
Identifier:  CBE/KCBE
Serves:  Cumberland, Maryland
Operator:  Potomac Highlands Airport Authority
Public/Private:  Public
Local Time:  25. Aug 04:53 EDT
Description: Coordinates: 39°36′56″N 078°45′39″W / 39.61556°N 78.76083°W / 39.61556; -78.76083
Source: Wikipedia
Location
Runways
Identifier Length (m/ft) Surface
5/23 5,048/5,048 Asphalt
11/29 2,442/2,442 Asphalt
Flights per Day
0 flights
Distance: 780km (484mi)
Punctuality
0% (0 flights per day delayed)
Delay Average: 13 minutes
Current Weather
 13 C (Humidity: 93%)
  3kt (5km/h / 3mph) from 240°
  16km (10 mi.)
 
 METAR KCBE 250820Z AUTO 24003KT 10SM CLR 13/12 A3027 RMK AO2 T01270119

Current Flights

Departures
Number Departure To Airline
Arrivals
Number Arrival From Airline

Current Delays

Departures
N/A
Arrivals
N/A

Destinations

Top Destinations
Airport Flights
per week
Seats
per week
  Hagerstown (HGR) 1 - 0 0
  Grand Rapids (GRR) 0 - 0 0
  Morgantown (MGW) 0 - 0 0
  Teterboro (TEB) 0 - 0 0
  Gaithersburg (GAI) 0 - 0 0
  Evansville (EVV) 0 - 0 0

Airlines & Planes

Top Airlines
Airline Flights
per Day
Seats
per Day
Jet Charter Inc ( Franklin Lakes Nj ) 0 -
Nordwind Airlines 0 -
  Novair 0 -
  Flybe Nordic 0 -
Top Plane Types
Model Flights Seats
Cirrus SR22 0.1/day - 0
Cessna C172 0.0/day - 0